Time;durP1;ratioP1;P1;durP2;ratioP2;P2;SDS_P1;SDS_P2;PMS_P1;PMS_P2;Temp;Humidity;BMP_temperature;BMP_pressure;BME280_temperature;BME280_humidity;BME280_pressure;Samples;Min_cycle;Max_cycle;Signal;HPM_P1;HPM_P2
2021/07/28 00:00:48;;;;;;;12.35;9.55;;;;;;;18.26;100.00;100204.31;5018197;28;20049;-68
2021/07/28 00:03:32;;;;;;;12.23;10.40;;;;;;;18.28;100.00;100194.16;5018388;28;20175;-68
2021/07/28 00:06:20;;;;;;;15.10;11.82;;;;;;;18.33;100.00;100197.13;5018190;28;20167;-67
2021/07/28 00:09:04;;;;;;;13.70;10.95;;;;;;;18.36;100.00;100179.72;5018582;28;20056;-67
2021/07/28 00:11:48;;;;;;;14.05;11.27;;;;;;;18.38;100.00;100185.75;5017845;28;20087;-68
2021/07/28 00:14:33;;;;;;;15.23;12.52;;;;;;;18.41;100.00;100186.19;5018244;28;20445;-68
2021/07/28 00:17:17;;;;;;;13.88;11.38;;;;;;;18.38;100.00;100178.50;5032021;28;20142;-66
2021/07/28 00:20:04;;;;;;;15.48;11.38;;;;;;;18.38;100.00;100179.31;5018388;28;20080;-68
2021/07/28 00:25:50;;;;;;;16.30;10.63;;;;;;;18.27;100.00;100176.31;5032173;28;20509;-68
2021/07/28 00:28:34;;;;;;;16.85;11.82;;;;;;;18.25;100.00;100183.78;5017733;28;20514;-68
2021/07/28 00:31:18;;;;;;;14.90;10.77;;;;;;;18.20;100.00;100183.50;5018156;28;20532;-68
2021/07/28 00:34:02;;;;;;;17.35;11.20;;;;;;;18.15;100.00;100182.41;5031667;28;20564;-68
2021/07/28 00:36:47;;;;;;;18.00;12.88;;;;;;;18.06;100.00;100179.03;5017906;28;20076;-67
2021/07/28 00:39:31;;;;;;;19.27;14.05;;;;;;;18.06;100.00;100178.19;5017894;28;20453;-68
2021/07/28 00:42:14;;;;;;;16.00;12.02;;;;;;;18.02;100.00;100176.91;5021187;28;20414;-68
2021/07/28 00:44:58;;;;;;;21.48;13.90;;;;;;;17.99;100.00;100175.44;5035888;28;20092;-68
2021/07/28 00:47:42;;;;;;;23.92;14.82;;;;;;;17.98;100.00;100176.47;5035515;28;20406;-68
2021/07/28 00:50:26;;;;;;;17.73;14.43;;;;;;;17.96;100.00;100180.38;5021259;28;20059;-68
2021/07/28 00:53:20;;;;;;;21.23;14.00;;;;;;;17.95;100.00;100182.25;5035210;28;20056;-68
2021/07/28 00:56:04;;;;;;;19.10;14.65;;;;;;;17.94;100.00;100180.59;5035262;28;20188;-68
2021/07/28 00:58:48;;;;;;;18.20;13.68;;;;;;;17.89;100.00;100176.81;5021023;28;20048;-68
2021/07/28 01:01:32;;;;;;;17.88;13.93;;;;;;;17.88;100.00;100173.25;5035233;28;20076;-68
2021/07/28 01:04:16;;;;;;;19.88;14.50;;;;;;;17.85;100.00;100180.91;5021213;28;20060;-68
2021/07/28 01:07:00;;;;;;;20.27;13.15;;;;;;;17.81;100.00;100182.31;5034776;28;20048;-68
2021/07/28 01:09:44;;;;;;;17.70;13.70;;;;;;;17.75;100.00;100175.84;5021110;28;20051;-68
2021/07/28 01:12:29;;;;;;;18.27;14.32;;;;;;;17.72;100.00;100181.59;5021203;28;20048;-68
2021/07/28 01:15:22;;;;;;;18.08;13.73;;;;;;;17.70;100.00;100177.44;5021203;28;20048;-68
2021/07/28 01:18:08;;;;;;;17.73;14.00;;;;;;;17.64;100.00;100179.03;5021783;28;20132;-68
2021/07/28 01:20:52;;;;;;;19.30;12.57;;;;;;;17.55;100.00;100169.41;5020887;28;20083;-67
2021/07/28 01:23:38;;;;;;;18.05;12.50;;;;;;;17.53;100.00;100171.47;5020606;28;20529;-68
2021/07/28 01:26:22;;;;;;;17.45;13.35;;;;;;;17.48;100.00;100163.09;5020739;28;20040;-68
2021/07/28 01:29:06;;;;;;;17.92;12.95;;;;;;;17.42;100.00;100163.84;5020398;28;20481;-66
2021/07/28 01:31:53;;;;;;;18.23;12.25;;;;;;;17.39;100.00;100161.53;5034472;28;20053;-68
2021/07/28 01:34:37;;;;;;;16.75;13.00;;;;;;;17.32;100.00;100157.88;5020809;28;20053;-68
2021/07/28 01:37:22;;;;;;;20.05;13.65;;;;;;;17.29;100.00;100160.97;5020269;28;20048;-67
2021/07/28 01:40:07;;;;;;;16.30;12.38;;;;;;;17.24;100.00;100178.72;5020265;28;20060;-68
2021/07/28 01:42:51;;;;;;;17.55;12.88;;;;;;;17.22;100.00;100173.56;5020475;28;20103;-68
2021/07/28 01:45:35;;;;;;;18.42;13.13;;;;;;;17.21;100.00;100171.03;5020390;28;20124;-67
2021/07/28 01:48:19;;;;;;;19.52;13.98;;;;;;;17.18;100.00;100172.25;5020489;28;20088;-68
2021/07/28 01:51:03;;;;;;;19.23;13.07;;;;;;;17.15;100.00;100164.53;5019994;28;20505;-68
2021/07/28 01:53:47;;;;;;;18.75;13.35;;;;;;;17.13;100.00;100165.75;5020089;28;20099;-67
2021/07/28 01:56:31;;;;;;;19.42;12.43;;;;;;;17.08;100.00;100169.00;5033953;28;20100;-68
2021/07/28 01:59:16;;;;;;;16.00;13.00;;;;;;;17.05;100.00;100171.22;5020431;28;20529;-68
2021/07/28 02:02:00;;;;;;;19.45;13.77;;;;;;;17.01;100.00;100176.16;5034084;28;20457;-68
2021/07/28 02:04:44;;;;;;;19.33;12.77;;;;;;;16.95;100.00;100176.06;5019958;28;20432;-68
2021/07/28 02:07:31;;;;;;;22.75;13.73;;;;;;;16.93;100.00;100175.44;5019982;28;20127;-68
2021/07/28 02:10:15;;;;;;;25.05;13.10;;;;;;;16.93;100.00;100170.03;5020120;28;20138;-67
2021/07/28 02:13:01;;;;;;;21.00;12.82;;;;;;;16.87;100.00;100162.72;5019733;28;20048;-68
2021/07/28 02:15:46;;;;;;;16.55;13.02;;;;;;;16.83;100.00;100161.41;5033704;28;20044;-68
2021/07/28 02:18:30;;;;;;;16.48;12.00;;;;;;;16.79;100.00;100166.34;5019519;28;20132;-67
2021/07/28 02:21:14;;;;;;;15.65;12.02;;;;;;;16.74;100.00;100159.84;5019926;28;20576;-68
2021/07/28 02:23:58;;;;;;;21.00;14.77;;;;;;;16.72;100.00;100168.13;5019618;28;20139;-67
2021/07/28 02:26:42;;;;;;;21.15;14.48;;;;;;;16.70;100.00;100172.00;5019596;28;20047;-68
2021/07/28 02:29:26;;;;;;;;;;;;;;;16.66;100.00;100166.16;5019806;28;20160;-68
2021/07/28 02:32:10;;;;;;;21.92;13.85;;;;;;;16.63;100.00;100165.69;5019551;28;19979;-68
2021/07/28 02:34:54;;;;;;;19.83;13.07;;;;;;;16.62;100.00;100172.94;5019444;28;20144;-67
2021/07/28 02:37:41;;;;;;;19.50;14.23;;;;;;;16.58;100.00;100168.94;5019341;28;20103;-67
2021/07/28 02:40:25;;;;;;;18.30;12.75;;;;;;;16.53;100.00;100170.50;5033098;28;20052;-68
2021/07/28 02:43:13;;;;;;;17.75;12.68;;;;;;;16.50;100.00;100177.06;5019843;28;20184;-67
2021/07/28 02:45:57;;;;;;;19.23;13.05;;;;;;;16.47;100.00;100172.06;5019021;28;20414;-68
2021/07/28 02:48:41;;;;;;;18.15;13.65;;;;;;;16.42;100.00;100174.50;5019215;28;20044;-68
2021/07/28 02:51:24;;;;;;;24.05;14.30;;;;;;;16.45;100.00;100171.44;5018887;28;20052;-68
2021/07/28 02:54:10;;;;;;;23.30;14.32;;;;;;;16.41;100.00;100167.44;5019129;28;20051;-68
2021/07/28 02:56:54;;;;;;;24.63;15.10;;;;;;;16.41;100.00;100171.97;5019218;28;20049;-68
2021/07/28 02:59:38;;;;;;;21.05;14.95;;;;;;;16.41;100.00;100164.75;5019325;28;20532;-68
2021/07/28 03:02:22;;;;;;;22.58;15.85;;;;;;;16.39;100.00;100172.16;5018999;28;20438;-68
2021/07/28 03:05:06;;;;;;;22.60;15.32;;;;;;;16.34;100.00;100166.47;5032459;28;20052;-67
2021/07/28 03:07:50;;;;;;;22.42;15.70;;;;;;;16.34;100.00;100163.78;5018656;28;20099;-68
2021/07/28 03:10:34;;;;;;;19.65;14.90;;;;;;;16.30;100.00;100151.72;5018600;28;20051;-68
2021/07/28 03:13:18;;;;;;;22.05;15.45;;;;;;;16.32;100.00;100151.53;5018832;28;20103;-67
2021/07/28 03:16:09;;;;;;;18.77;14.30;;;;;;;16.26;100.00;100152.28;5018907;28;20108;-68
2021/07/28 03:18:52;;;;;;;20.48;14.27;;;;;;;16.25;100.00;100155.94;5032709;28;20068;-68
2021/07/28 03:21:36;;;;;;;23.33;15.52;;;;;;;16.28;100.00;100156.44;5018656;28;20119;-68
2021/07/28 03:24:20;;;;;;;22.50;15.20;;;;;;;16.23;100.00;100164.22;5018359;28;20079;-68
2021/07/28 03:27:05;;;;;;;17.23;14.18;;;;;;;16.24;100.00;100165.88;5018901;28;20052;-68
2021/07/28 03:29:49;;;;;;;23.30;14.68;;;;;;;16.20;100.00;100169.97;5018613;28;20517;-67
2021/07/28 03:32:33;;;;;;;23.23;15.02;;;;;;;16.18;100.00;100172.00;5018367;28;20526;-68
2021/07/28 03:35:17;;;;;;;23.73;15.80;;;;;;;16.13;100.00;100169.03;5018506;28;20052;-68
2021/07/28 03:38:01;;;;;;;21.88;14.98;;;;;;;16.08;100.00;100171.41;5018363;28;20052;-68
2021/07/28 03:40:45;;;;;;;28.50;15.35;;;;;;;16.05;100.00;100169.09;5018491;28;20549;-68
2021/07/28 03:43:29;;;;;;;24.02;14.52;;;;;;;16.06;100.00;100173.44;5018126;28;20143;-68
2021/07/28 03:46:13;;;;;;;21.92;14.13;;;;;;;16.04;100.00;100164.72;5018234;28;20040;-68
2021/07/28 03:48:57;;;;;;;22.45;15.15;;;;;;;16.02;100.00;100166.78;5018371;28;20060;-68
2021/07/28 03:51:41;;;;;;;21.80;15.57;;;;;;;16.00;100.00;100160.75;5018373;28;20466;-68
2021/07/28 03:54:25;;;;;;;23.02;15.13;;;;;;;16.00;100.00;100163.44;5032073;28;20106;-68
2021/07/28 03:57:10;;;;;;;25.98;15.52;;;;;;;16.00;100.00;100157.22;5018078;28;20128;-68
2021/07/28 03:59:53;;;;;;;20.35;14.45;;;;;;;15.97;100.00;100158.41;5018311;28;20049;-68
2021/07/28 04:02:37;;;;;;;22.35;14.35;;;;;;;15.96;100.00;100156.72;5018508;28;20049;-68
2021/07/28 04:05:22;;;;;;;21.85;14.95;;;;;;;15.97;100.00;100153.03;5018449;28;20067;-68
2021/07/28 04:08:06;;;;;;;24.40;15.60;;;;;;;15.99;100.00;100160.91;5018346;28;20513;-68
2021/07/28 04:10:50;;;;;;;21.30;14.25;;;;;;;15.96;100.00;100156.72;5018449;28;20080;-67
2021/07/28 04:13:34;;;;;;;24.40;15.82;;;;;;;15.99;100.00;100160.91;5031955;28;20099;-68
2021/07/28 04:16:18;;;;;;;25.75;15.85;;;;;;;16.06;100.00;100168.06;5021429;28;20111;-68
2021/07/28 04:19:02;;;;;;;25.65;16.05;;;;;;;16.08;100.00;100157.97;5022116;28;20506;-68
2021/07/28 04:21:46;;;;;;;24.30;15.55;;;;;;;16.10;100.00;100155.94;5022142;28;20529;-68
2021/07/28 04:24:32;;;;;;;22.30;16.38;;;;;;;16.15;100.00;100156.22;5022084;28;20072;-67
2021/07/28 04:27:16;;;;;;;23.70;15.70;;;;;;;16.20;100.00;100164.59;5035636;28;20052;-68
2021/07/28 04:30:00;;;;;;;23.70;16.08;;;;;;;16.21;100.00;100166.25;5035587;28;20053;-68
2021/07/28 04:32:43;;;;;;;23.35;15.18;;;;;;;16.24;100.00;100165.88;5022061;28;20100;-68
2021/07/28 04:35:27;;;;;;;22.90;16.23;;;;;;;16.27;100.00;100170.91;5021740;28;20056;-68
2021/07/28 04:38:11;;;;;;;25.83;16.67;;;;;;;16.30;100.00;100170.56;5021652;28;20529;-69
2021/07/28 04:40:55;;;;;;;24.92;15.75;;;;;;;16.28;100.00;100171.75;5021625;28;20560;-68
2021/07/28 04:43:39;;;;;;;26.23;16.58;;;;;;;16.26;100.00;100171.09;5021250;28;20521;-68
2021/07/28 04:46:23;;;;;;;23.55;16.88;;;;;;;16.32;100.00;100178.41;5021487;28;20036;-69
2021/07/28 04:49:07;;;;;;;26.17;15.90;;;;;;;16.38;100.00;100165.09;5021441;28;20103;-67
2021/07/28 04:51:51;;;;;;;25.60;16.95;;;;;;;16.41;100.00;100167.44;5021622;28;20096;-67
2021/07/28 04:54:35;;;;;;;22.92;17.00;;;;;;;16.33;100.00;100172.88;5021421;28;20410;-68
2021/07/28 04:57:19;;;;;;;25.67;16.75;;;;;;;16.40;100.00;100170.31;5021327;28;20048;-68
2021/07/28 05:00:04;;;;;;;23.88;16.17;;;;;;;16.43;100.00;100175.31;5021072;28;20088;-68
2021/07/28 05:02:48;;;;;;;21.67;16.20;;;;;;;16.49;100.00;100170.03;5035089;28;20096;-68
2021/07/28 05:05:31;;;;;;;25.08;16.00;;;;;;;16.54;100.00;100181.09;5035125;28;20087;-68
2021/07/28 05:08:15;;;;;;;22.70;16.75;;;;;;;16.60;100.00;100177.66;5021105;28;20382;-68
2021/07/28 05:10:59;;;;;;;22.85;16.15;;;;;;;16.66;100.00;100178.75;5036035;28;20049;-69
2021/07/28 05:13:43;;;;;;;22.60;16.13;;;;;;;16.68;100.00;100180.25;5034972;28;20418;-68
2021/07/28 05:16:27;;;;;;;31.60;16.60;;;;;;;16.76;100.00;100187.41;5035789;28;20522;-68
2021/07/28 05:19:11;;;;;;;25.67;17.23;;;;;;;16.81;100.00;100188.53;5020675;28;20048;-68
2021/07/28 05:21:55;;;;;;;24.33;15.80;;;;;;;16.80;100.00;100192.22;5035748;28;20524;-67
2021/07/28 05:24:39;;;;;;;23.40;16.55;;;;;;;16.87;100.00;100185.09;5034734;28;20137;-67
2021/07/28 05:27:23;;;;;;;26.10;16.10;;;;;;;16.99;100.00;100180.06;5034155;28;20167;-67
2021/07/28 05:30:07;;;;;;;23.27;16.75;;;;;;;17.04;100.00;100175.81;5020629;28;20192;-69
2021/07/28 05:32:51;;;;;;;27.40;17.83;;;;;;;17.03;100.00;100174.13;5020543;28;20083;-68
2021/07/28 05:35:36;;;;;;;28.70;18.40;;;;;;;16.99;100.00;100183.59;5020639;28;20103;-68
2021/07/28 05:38:20;;;;;;;28.58;18.00;;;;;;;17.05;100.00;100182.00;5020638;28;20041;-68
2021/07/28 05:41:04;;;;;;;25.55;18.15;;;;;;;17.11;100.00;100179.41;5034362;28;20063;-68
2021/07/28 05:43:48;;;;;;;26.92;18.20;;;;;;;17.10;100.00;100175.03;5034082;28;20144;-68
2021/07/28 05:46:34;;;;;;;28.25;19.30;;;;;;;17.20;100.00;100180.97;5035451;28;20048;-68
2021/07/28 05:49:18;;;;;;;27.98;19.13;;;;;;;17.29;100.00;100185.22;5020238;28;20130;-68
2021/07/28 05:52:03;;;;;;;26.60;18.50;;;;;;;17.26;100.00;100182.91;5020380;28;20059;-68
2021/07/28 05:54:47;;;;;;;24.25;17.73;;;;;;;17.31;100.00;100177.78;5020045;28;20525;-68
2021/07/28 05:57:31;;;;;;;27.83;17.95;;;;;;;17.32;100.00;100186.72;5034181;28;20053;-68
2021/07/28 06:00:15;;;;;;;25.25;18.45;;;;;;;17.40;100.00;100192.84;5034157;28;20052;-68
2021/07/28 06:02:58;;;;;;;25.48;17.67;;;;;;;17.41;100.00;100194.50;5020032;28;20088;-68
2021/07/28 06:05:42;;;;;;;26.92;18.30;;;;;;;17.48;100.00;100190.03;5020274;28;20091;-68
2021/07/28 06:08:26;;;;;;;28.13;18.40;;;;;;;17.56;100.00;100187.25;5019904;28;20053;-66
2021/07/28 06:11:13;;;;;;;25.80;17.63;;;;;;;17.61;100.00;100200.97;5033948;28;20056;-68
2021/07/28 06:13:57;;;;;;;24.95;18.08;;;;;;;17.74;100.00;100195.75;5019793;28;20143;-67
2021/07/28 06:16:41;;;;;;;26.13;18.42;;;;;;;17.69;100.00;100195.47;5019760;28;20091;-66
2021/07/28 06:19:25;;;;;;;23.23;17.23;;;;;;;17.81;100.00;100196.63;5019830;28;20552;-68
2021/07/28 06:22:10;;;;;;;23.40;17.35;;;;;;;17.83;100.00;100199.94;5019734;28;20143;-68
2021/07/28 06:24:54;;;;;;;23.75;16.05;;;;;;;17.88;100.00;100192.13;5033349;28;20048;-69
2021/07/28 06:27:38;;;;;;;22.88;16.33;;;;;;;17.93;100.00;100189.69;5019914;28;20049;-68
2021/07/28 06:30:22;;;;;;;26.63;17.10;;;;;;;17.98;100.00;100195.34;5019616;28;20079;-68
2021/07/28 06:33:06;;;;;;;21.55;16.52;;;;;;;17.93;100.00;100200.47;5033341;28;20103;-69
2021/07/28 06:35:51;;;;;;;21.95;16.08;;;;;;;17.98;100.00;100197.19;5033689;28;20098;-68
2021/07/28 06:38:36;;;;;;;23.17;16.38;;;;;;;18.07;100.00;100201.44;5019165;28;20052;-68
2021/07/28 06:41:20;;;;;;;23.38;16.63;;;;;;;18.10;100.00;100206.47;5019468;28;20118;-68
2021/07/28 06:44:04;;;;;;;21.90;16.35;;;;;;;18.10;100.00;100207.28;5019177;28;20063;-68
2021/07/28 06:46:48;;;;;;;22.73;16.17;;;;;;;18.28;100.00;100202.25;5019213;28;20513;-68
2021/07/28 06:49:32;;;;;;;25.13;16.83;;;;;;;18.32;100.00;100205.44;5019223;28;20115;-68
2021/07/28 06:52:16;;;;;;;21.80;15.93;;;;;;;18.36;100.00;100204.00;5033021;28;20080;-68
2021/07/28 06:55:00;;;;;;;20.05;15.38;;;;;;;18.48;100.00;100216.78;5019349;28;20048;-68
2021/07/28 06:57:44;;;;;;;20.50;14.77;;;;;;;18.46;100.00;100208.06;5018789;28;20047;-67
2021/07/28 07:00:28;;;;;;;19.20;14.57;;;;;;;18.57;100.00;100202.13;5018988;28;20057;-68
2021/07/28 07:03:12;;;;;;;21.55;14.63;;;;;;;18.50;100.00;100206.63;5018612;28;20510;-68
2021/07/28 07:05:56;;;;;;;21.17;14.55;;;;;;;18.65;100.00;100218.13;5019245;28;20060;-67
2021/07/28 07:08:40;;;;;;;20.35;13.50;;;;;;;18.62;100.00;100202.34;5018857;28;20517;-68
2021/07/28 07:11:24;;;;;;;19.50;14.10;;;;;;;18.65;100.00;100207.34;5018839;28;20170;-68
2021/07/28 07:14:08;;;;;;;18.45;13.00;;;;;;;18.76;100.00;100204.94;5018716;28;20621;-68
2021/07/28 07:16:54;;;;;;;16.77;12.57;;;;;;;18.93;100.00;100211.72;5018895;28;20510;-68
2021/07/28 07:19:38;;;;;;;16.17;12.15;;;;;;;19.10;100.00;100207.63;5019083;28;20056;-68
2021/07/28 07:22:22;;;;;;;;;;;;;;;19.01;100.00;100213.41;5033083;28;20461;-68
2021/07/28 07:25:07;;;;;;;18.10;12.20;;;;;;;19.10;100.00;100206.81;5018672;28;20332;-68
2021/07/28 07:27:51;;;;;;;19.77;12.73;;;;;;;19.12;100.00;100215.53;5018499;28;20110;-68
2021/07/28 07:30:34;;;;;;;17.85;12.52;;;;;;;19.15;100.00;100210.56;5018353;28;20513;-68
2021/07/28 07:33:39;;;;;;;15.55;12.25;;;;;;;19.22;100.00;100218.75;5032333;28;20087;-67
2021/07/28 07:36:23;;;;;;;;;;;;;;;19.34;100.00;100203.63;5032507;28;20049;-68
2021/07/28 07:39:08;;;;;;;18.45;12.02;;;;;;;19.42;100.00;100201.59;5018749;28;20385;-67
2021/07/28 07:41:52;;;;;;;15.55;11.70;;;;;;;19.53;100.00;100205.56;5032647;28;20128;-68
2021/07/28 07:44:36;;;;;;;14.23;10.50;;;;;;;19.53;100.00;100208.25;5017885;28;20052;-68
2021/07/28 07:47:19;;;;;;;15.60;10.85;;;;;;;19.73;100.00;100203.75;5032105;28;20091;-68
2021/07/28 07:50:04;;;;;;;14.32;10.80;;;;;;;19.83;100.00;100198.78;5031961;28;20052;-68
2021/07/28 07:52:48;;;;;;;12.63;10.27;;;;;;;19.79;100.00;100202.94;5018008;28;20132;-68
2021/07/28 07:55:32;;;;;;;13.15;10.75;;;;;;;19.74;100.00;100195.44;5032262;28;20130;-68
2021/07/28 07:58:16;;;;;;;11.68;9.77;;;;;;;19.80;100.00;100193.78;5032146;28;20052;-68
2021/07/28 08:01:10;;;;;;;13.80;9.52;;;;;;;19.69;100.00;100197.09;5018012;28;20048;-68
2021/07/28 08:03:55;;;;;;;13.32;9.95;;;;;;;19.73;100.00;100210.00;5017885;28;20514;-68
2021/07/28 08:06:39;;;;;;;12.57;9.32;;;;;;;19.89;100.00;100203.38;5018346;28;20048;-68
2021/07/28 08:09:23;;;;;;;13.38;9.65;;;;;;;20.04;100.00;100193.22;5018201;28;20111;-68
2021/07/28 08:12:07;;;;;;;;;;;;;;;20.31;100.00;100197.63;5018806;28;20411;-70
2021/07/28 08:14:51;;;;;;;13.75;9.70;;;;;;;20.36;100.00;100189.69;5018002;28;19920;-68
2021/07/28 08:17:34;;;;;;;;;;;;;;;20.36;100.00;100200.53;5018264;28;20052;-68
2021/07/28 08:20:18;;;;;;;10.70;9.13;;;;;;;20.19;100.00;100193.88;5018014;28;19920;-68
2021/07/28 08:23:03;;;;;;;21.52;9.55;;;;;;;20.34;100.00;100189.09;5018123;28;20128;-68
2021/07/28 08:25:47;;;;;;;19.63;10.05;;;;;;;20.26;100.00;100197.41;5018243;28;20048;-68
2021/07/28 08:28:31;;;;;;;10.80;8.75;;;;;;;20.25;100.00;100198.44;5017724;28;20148;-66
2021/07/28 08:31:15;;;;;;;14.70;8.88;;;;;;;20.46;100.00;100206.34;5017779;28;20048;-68
2021/07/28 08:33:59;;;;;;;10.90;8.52;;;;;;;20.65;100.00;100202.81;5018061;28;20130;-68
2021/07/28 08:36:43;;;;;;;13.75;8.43;;;;;;;20.90;100.00;100198.41;5017940;28;20052;-68
2021/07/28 08:39:28;;;;;;;12.52;8.80;;;;;;;20.86;100.00;100202.59;5017946;28;20422;-69
2021/07/28 08:42:12;;;;;;;11.70;8.70;;;;;;;21.04;100.00;100206.28;5018046;28;20084;-68
2021/07/28 08:44:56;;;;;;;;;;;;;;;21.23;100.00;100210.00;5041840;23;20065;-67
2021/07/28 08:47:42;;;;;;;10.13;8.23;;;;;;;21.52;100.00;100208.44;4998018;28;19924;-67
2021/07/28 08:50:27;;;;;;;13.13;8.50;;;;;;;21.61;100.00;100207.09;4998208;28;20108;-67
2021/07/28 08:53:10;;;;;;;11.95;8.13;;;;;;;21.57;100.00;100211.31;4998427;28;20407;-66
2021/07/28 08:55:55;;;;;;;;;;;;;;;21.31;100.00;100211.44;4978772;28;20048;-67
2021/07/28 08:58:38;;;;;;;10.18;7.53;;;;;;;21.09;100.00;100219.22;4978699;28;19925;-67
2021/07/28 09:01:22;;;;;;;10.75;7.93;;;;;;;21.11;100.00;100211.69;4992819;28;20108;-67
2021/07/28 09:04:06;;;;;;;10.73;7.97;;;;;;;20.90;100.00;100206.53;4982070;28;20069;-67
2021/07/28 09:06:51;;;;;;;10.32;7.25;;;;;;;20.71;100.00;100216.34;4981804;28;20070;-67
2021/07/28 09:09:53;;;;;;;12.05;7.95;;;;;;;20.98;100.00;100214.44;4981816;28;20105;-67
2021/07/28 09:12:41;;;;;;;13.15;7.95;;;;;;;21.04;100.00;100210.91;4981965;28;20045;-67
2021/07/28 09:15:37;;;;;;;11.15;7.47;;;;;;;21.11;99.87;100214.41;4982127;28;20049;-67
2021/07/28 09:18:37;;;;;;;9.82;7.25;;;;;;;20.95;100.00;100204.84;4994973;28;20168;-67
2021/07/28 09:21:25;;;;;;;12.40;7.03;;;;;;;21.04;100.00;100210.91;4995538;28;20093;-67
2021/07/28 09:24:11;;;;;;;11.30;7.20;;;;;;;21.42;100.00;100210.78;4995196;28;20057;-67
2021/07/28 09:26:55;;;;;;;10.15;7.28;;;;;;;21.39;95.32;100213.06;4981921;28;20116;-67
2021/07/28 09:29:39;;;;;;;14.88;7.75;;;;;;;21.64;95.45;100217.59;4981638;28;20049;-66
2021/07/28 09:32:23;;;;;;;12.30;6.97;;;;;;;21.94;92.50;100215.94;4981505;28;20503;-66
2021/07/28 09:35:07;;;;;;;12.00;6.35;;;;;;;21.74;87.64;100214.38;4981351;28;20049;-67
2021/07/28 09:37:51;;;;;;;8.23;6.07;;;;;;;22.08;86.48;100216.69;4981127;28;20125;-65
2021/07/28 09:40:35;;;;;;;8.27;6.20;;;;;;;22.26;84.74;100209.47;4981445;28;20399;-67
2021/07/28 09:43:19;;;;;;;7.47;6.35;;;;;;;22.43;83.82;100205.16;4995048;28;20173;-67
2021/07/28 09:46:20;;;;;;;9.60;6.05;;;;;;;22.46;84.88;100204.72;4981150;28;20137;-67
2021/07/28 09:49:09;;;;;;;9.40;6.25;;;;;;;22.46;85.63;100199.31;4981048;28;20073;-66
2021/07/28 09:51:53;;;;;;;9.07;6.38;;;;;;;22.26;86.07;100208.63;4981608;28;20053;-67
2021/07/28 09:54:37;;;;;;;9.38;6.43;;;;;;;22.24;85.68;100205.28;4981014;28;20431;-67
2021/07/28 09:57:25;;;;;;;9.05;6.22;;;;;;;22.19;83.23;100213.28;4980869;28;20081;-67
2021/07/28 10:00:09;;;;;;;11.00;7.05;;;;;;;22.63;85.18;100213.16;4981113;28;20108;-67
2021/07/28 10:02:58;;;;;;;9.82;6.40;;;;;;;22.89;80.71;100223.75;4981011;28;20403;-67
2021/07/28 10:05:41;;;;;;;7.78;6.68;;;;;;;22.87;82.03;100207.69;4980822;28;20065;-66
2021/07/28 10:08:25;;;;;;;9.32;6.60;;;;;;;23.47;81.46;100198.66;4980953;28;20526;-66
2021/07/28 10:11:13;;;;;;;10.38;6.18;;;;;;;23.72;75.37;100206.72;4980942;28;20122;-67
2021/07/28 10:13:57;;;;;;;9.32;6.50;;;;;;;24.26;74.58;100200.03;4981021;28;20061;-67
2021/07/28 10:16:41;;;;;;;;;;;;;;;24.49;71.20;100193.81;4981130;28;20081;-65
2021/07/28 10:19:25;;;;;;;9.63;6.65;;;;;;;24.79;68.73;100189.09;4980426;28;19920;-66
2021/07/28 10:22:09;;;;;;;;;;;;;;;24.69;68.55;100199.78;4981139;28;20057;-67
2021/07/28 10:24:57;;;;;;;7.78;5.88;;;;;;;24.45;69.41;100190.72;4980552;28;19919;-68
2021/07/28 10:27:50;;;;;;;8.52;6.72;;;;;;;24.47;67.71;100193.19;4994270;28;20165;-67
2021/07/28 10:30:34;;;;;;;10.80;6.60;;;;;;;25.49;62.25;100196.94;4980515;28;20049;-67
2021/07/28 10:33:27;;;;;;;;;;;;;;;27.20;59.26;100187.94;4980822;28;20176;-67
2021/07/28 10:36:12;;;;;;;8.27;6.55;;;;;;;27.41;54.70;100187.94;4980391;28;19921;-67
2021/07/28 10:38:57;;;;;;;9.57;5.78;;;;;;;27.71;56.11;100185.56;4980388;28;20576;-67
2021/07/28 10:41:44;;;;;;;7.25;6.15;;;;;;;26.43;57.88;100168.94;4980589;28;20053;-67
2021/07/28 10:44:28;;;;;;;9.55;6.32;;;;;;;25.37;61.60;100176.22;4993640;28;20049;-67
2021/07/28 10:47:12;;;;;;;10.25;5.75;;;;;;;24.78;64.16;100176.50;4993954;28;20173;-67
2021/07/28 10:49:56;;;;;;;10.88;6.15;;;;;;;25.91;61.21;100184.69;4993941;28;20611;-67
2021/07/28 10:52:43;;;;;;;;;;;;;;;25.60;59.70;100179.69;4980822;28;20058;-67
2021/07/28 10:55:36;;;;;;;6.60;5.90;;;;;;;24.95;62.12;100181.03;4993418;28;20401;-68
2021/07/28 10:58:24;;;;;;;7.95;6.43;;;;;;;25.31;61.49;100171.75;4993489;28;20527;-67
2021/07/28 11:01:09;;;;;;;6.25;5.50;;;;;;;25.85;59.51;100182.91;4993712;28;20045;-67
2021/07/28 11:04:22;;;;;;;7.82;5.68;;;;;;;26.20;59.05;100189.06;4993381;28;20048;-67
2021/07/28 11:07:06;;;;;;;10.52;5.97;;;;;;;27.26;55.53;100179.53;4993597;28;20042;-67
2021/07/28 11:10:03;;;;;;;8.30;5.53;;;;;;;28.21;52.10;100183.38;4979816;28;20408;-68
2021/07/28 11:12:47;;;;;;;9.75;5.72;;;;;;;28.97;48.54;100171.91;4994256;28;20104;-69
2021/07/28 11:15:31;;;;;;;8.70;5.20;;;;;;;28.44;49.35;100183.03;4979643;28;20105;-65
2021/07/28 11:18:15;;;;;;;11.10;5.82;;;;;;;29.94;45.94;100179.19;4979526;28;20109;-67
2021/07/28 11:21:10;;;;;;;8.77;5.30;;;;;;;31.08;43.67;100185.00;4993096;28;20057;-67
2021/07/28 11:24:03;;;;;;;8.45;5.60;;;;;;;30.33;43.68;100158.38;4979379;28;20440;-67
2021/07/28 11:26:47;;;;;;;8.60;5.17;;;;;;;30.54;43.27;100161.94;4979753;28;20053;-67
2021/07/28 11:29:31;;;;;;;6.70;4.97;;;;;;;30.11;43.29;100163.31;4979395;28;20101;-67
2021/07/28 11:32:22;;;;;;;8.27;5.85;;;;;;;31.18;42.47;100157.47;4979282;28;20049;-67
2021/07/28 11:35:07;;;;;;;7.53;4.97;;;;;;;31.23;40.05;100163.78;4979125;28;20061;-67
2021/07/28 11:37:51;;;;;;;7.68;5.10;;;;;;;31.26;41.12;100148.63;4979113;28;20050;-66
2021/07/28 11:40:46;;;;;;;8.18;5.25;;;;;;;30.82;41.27;100150.41;4979491;28;20141;-67
2021/07/28 11:43:33;;;;;;;6.75;5.15;;;;;;;29.95;44.47;100141.56;4979148;28;20125;-67
2021/07/28 11:46:18;;;;;;;5.93;4.88;;;;;;;29.18;45.48;100143.47;4979633;28;20072;-67
2021/07/28 11:49:08;;;;;;;7.68;5.70;;;;;;;28.11;48.97;100141.34;4979168;28;20092;-66
2021/07/28 11:51:58;;;;;;;6.82;5.32;;;;;;;27.29;50.14;100135.22;4979112;28;20148;-67
2021/07/28 11:54:41;;;;;;;9.05;5.50;;;;;;;27.42;51.26;100129.34;4965846;28;20050;-67
2021/07/28 11:57:26;;;;;;;7.22;4.75;;;;;;;27.38;48.35;100143.81;4979068;28;20478;-66
2021/07/28 12:00:28;;;;;;;;;;;;;;;27.48;50.59;100139.28;4979591;28;20086;-66
2021/07/28 12:03:28;;;;;;;8.48;4.95;;;;;;;28.58;47.89;100128.56;4992784;28;19920;-66
2021/07/28 12:06:12;;;;;;;6.80;5.00;;;;;;;29.63;45.07;100135.44;4979133;28;20407;-67
2021/07/28 12:09:09;;;;;;;5.28;4.72;;;;;;;29.32;43.89;100138.31;4979102;28;20074;-67
2021/07/28 12:12:00;;;;;;;7.90;4.20;;;;;;;29.55;43.55;100130.47;4979233;28;20096;-66
2021/07/28 12:14:48;;;;;;;5.20;4.60;;;;;;;27.96;46.55;100139.28;4992500;28;20427;-67
2021/07/28 12:17:32;;;;;;;7.65;5.25;;;;;;;26.67;50.88;100143.09;4979022;28;20105;-66
2021/07/28 12:20:15;;;;;;;;;;;;;;;26.25;51.47;100141.84;4979533;28;20057;-67
2021/07/28 12:22:59;;;;;;;5.57;4.65;;;;;;;26.47;51.20;100129.09;4978982;28;19960;-67
2021/07/28 12:25:46;;;;;;;10.20;4.97;;;;;;;27.68;49.75;100139.50;4978727;28;20185;-67
2021/07/28 12:28:50;;;;;;;8.07;5.13;;;;;;;27.32;48.40;100118.28;4978778;28;20045;-67
2021/07/28 12:31:34;;;;;;;6.55;4.53;;;;;;;27.57;48.45;100117.75;4978989;28;20064;-67
2021/07/28 12:34:18;;;;;;;;;;;;;;;27.35;49.28;100136.97;4979010;28;20097;-67
2021/07/28 12:37:22;;;;;;;6.00;4.63;;;;;;;27.15;49.88;100139.44;4981640;28;20334;-66